createdAt,value
2023-03-04T00:03:30.739Z,40.58
2023-03-04T00:07:35.492Z,49.22
2023-03-04T00:11:38.830Z,33.50
2023-03-04T00:15:41.759Z,42.33
2023-03-04T00:19:45.218Z,63.03
2023-03-04T00:23:50.079Z,45.35
2023-03-04T00:27:53.660Z,39.20
2023-03-04T00:31:56.655Z,50.88
2023-03-04T00:36:00.265Z,41.97
2023-03-04T00:40:05.568Z,36.75
2023-03-04T00:44:09.507Z,26.48
2023-03-04T00:48:13.153Z,38.45
2023-03-04T00:52:16.397Z,39.25
2023-03-04T00:56:20.702Z,41.28
2023-03-04T01:00:24.420Z,34.72
2023-03-04T01:04:28.047Z,42.20
2023-03-04T01:08:30.916Z,28.67
2023-03-04T01:12:35.947Z,31.63
2023-03-04T01:16:39.251Z,37.90
2023-03-04T01:20:42.696Z,43.55
2023-03-04T01:24:46.123Z,37.65
2023-03-04T01:28:50.489Z,38.30
2023-03-04T01:32:53.899Z,39.03
2023-03-04T01:36:57.325Z,40.47
2023-03-04T01:41:00.785Z,39.08
2023-03-04T01:45:06.325Z,42.25
2023-03-04T01:49:14.112Z,31.33
2023-03-04T01:53:22.358Z,50.05
2023-03-04T01:57:28.333Z,33.40
2023-03-04T02:01:33.113Z,38.40
2023-03-04T02:05:38.562Z,38.65
2023-03-04T02:10:09.599Z,29.10
2023-03-04T02:14:14.610Z,40.28
2023-03-04T02:18:22.420Z,50.80
2023-03-04T02:22:25.992Z,33.67
2023-03-04T02:26:32.683Z,33.83
2023-03-04T02:30:37.116Z,33.47
2023-03-04T02:34:46.085Z,34.13
2023-03-04T02:38:51.287Z,40.22
2023-03-04T02:42:56.467Z,34.40
2023-03-04T02:47:00.203Z,46.58
2023-03-04T02:51:04.235Z,25.98
2023-03-04T02:55:09.974Z,37.67
2023-03-04T02:59:14.786Z,45.05
2023-03-04T03:03:18.140Z,34.83
2023-03-04T03:07:21.727Z,34.45
2023-03-04T03:11:26.683Z,36.63
2023-03-04T03:15:31.854Z,35.95
2023-03-04T03:24:56.661Z,32.70
2023-03-04T03:29:00.037Z,41.45
2023-03-04T03:33:04.963Z,38.70
2023-03-04T03:37:08.424Z,25.52
2023-03-04T03:41:11.502Z,26.80
2023-03-04T03:45:14.945Z,31.15
2023-03-04T03:49:19.524Z,34.08
2023-03-04T03:53:22.945Z,38.00
2023-03-04T03:57:25.934Z,35.10
2023-03-04T04:01:29.987Z,34.40
2023-03-04T04:05:34.337Z,39.72
2023-03-04T04:09:37.629Z,29.88
2023-03-04T04:13:40.585Z,38.33
2023-03-04T04:17:43.953Z,41.92
2023-03-04T04:21:49.279Z,38.88
2023-03-04T04:25:52.541Z,44.75
2023-03-04T04:29:55.530Z,45.75
2023-03-04T04:33:59.052Z,36.65
2023-03-04T04:38:03.554Z,41.70
2023-03-04T04:42:07.457Z,35.08
2023-03-04T04:46:10.617Z,48.97
2023-03-04T04:50:14.669Z,42.10
2023-03-04T04:54:19.319Z,45.08
2023-03-04T04:58:22.771Z,46.95
2023-03-04T05:02:25.713Z,55.25
2023-03-04T05:06:31.134Z,41.55
2023-03-04T05:10:35.406Z,44.58
2023-03-04T05:14:39.326Z,34.05
2023-03-04T05:18:42.486Z,42.38
2023-03-04T05:22:46.789Z,56.70
2023-03-04T05:26:51.031Z,48.65
2023-03-04T05:30:54.694Z,46.00
2023-03-04T05:34:57.806Z,54.45
2023-03-04T05:39:01.128Z,46.35
2023-03-04T05:43:05.612Z,50.53
2023-03-04T05:47:09.107Z,53.33
2023-03-04T05:51:12.884Z,41.65
2023-03-04T05:55:16.382Z,48.10
2023-03-04T05:59:20.949Z,47.75
2023-03-04T06:03:25.313Z,44.97
2023-03-04T06:07:28.348Z,45.80
2023-03-04T06:11:31.969Z,51.80
2023-03-04T06:15:36.726Z,67.70
2023-03-04T06:19:42.017Z,54.55
2023-03-04T06:23:45.632Z,54.45
2023-03-04T06:27:50.625Z,60.17
2023-03-04T06:31:55.769Z,72.45
2023-03-04T06:35:59.108Z,59.92
2023-03-04T06:40:03.956Z,51.13
2023-03-04T06:44:07.275Z,50.17
2023-03-04T06:48:13.832Z,54.80
2023-03-04T06:52:16.856Z,55.00
2023-03-04T06:56:20.331Z,54.50
2023-03-04T07:00:24.797Z,60.20
2023-03-04T07:04:29.911Z,76.30
2023-03-04T07:08:32.775Z,62.38
2023-03-04T07:12:36.036Z,65.20
2023-03-04T07:16:39.355Z,64.90
2023-03-04T07:20:44.102Z,55.25
2023-03-04T07:24:47.386Z,53.55
2023-03-04T07:28:52.725Z,61.90
2023-03-04T07:32:58.443Z,48.47
2023-03-04T07:37:03.049Z,52.33
2023-03-04T07:41:06.673Z,52.08
2023-03-04T07:45:11.954Z,47.58
2023-03-04T07:49:15.735Z,46.38
2023-03-04T07:53:20.901Z,45.33
2023-03-04T07:57:23.980Z,48.00
2023-03-04T08:01:30.347Z,45.65
2023-03-04T08:05:33.408Z,47.03
2023-03-04T08:09:37.999Z,50.45
2023-03-04T08:13:41.691Z,48.92
2023-03-04T08:17:45.254Z,48.58
2023-03-04T08:21:48.133Z,49.47
2023-03-04T08:25:53.257Z,50.63
2023-03-04T08:29:56.218Z,43.70
2023-03-04T08:33:59.230Z,48.05
2023-03-04T08:38:02.626Z,48.72
2023-03-04T08:42:08.095Z,39.72
2023-03-04T08:46:11.235Z,46.78
2023-03-04T08:50:14.675Z,37.55
2023-03-04T08:54:17.879Z,34.92
2023-03-04T08:58:22.613Z,43.67
2023-03-04T09:02:25.662Z,37.25
2023-03-04T09:06:28.797Z,36.60
2023-03-04T09:10:31.878Z,41.65
2023-03-04T09:14:38.182Z,28.48
2023-03-04T09:18:41.740Z,42.40
2023-03-04T09:22:45.060Z,42.80
2023-03-04T09:26:51.687Z,36.05
2023-03-04T09:30:56.408Z,38.95
2023-03-04T09:34:59.331Z,42.17
2023-03-04T09:39:04.277Z,28.23
2023-03-04T09:43:12.744Z,24.95
2023-03-04T09:47:19.700Z,26.60
2023-03-04T09:51:24.901Z,30.60
2023-03-04T09:55:35.954Z,26.55
2023-03-04T09:59:46.107Z,26.77
2023-03-04T10:14:46.064Z,24.48
2023-03-04T10:18:54.701Z,27.52
2023-03-04T10:23:00.897Z,22.48
2023-03-04T10:27:08.570Z,25.25
2023-03-04T10:31:22.744Z,22.90
2023-03-04T10:35:34.574Z,23.95
2023-03-04T10:39:40.206Z,23.65
2023-03-04T10:43:45.513Z,19.30
2023-03-04T10:47:55.724Z,24.65
2023-03-04T10:52:04.280Z,32.20
2023-03-04T10:56:26.217Z,19.55
2023-03-04T11:00:32.089Z,20.48
2023-03-04T11:04:38.052Z,19.55
2023-03-04T11:08:42.345Z,22.92
2023-03-04T11:12:50.781Z,17.58
2023-03-04T11:16:57.315Z,27.17
2023-03-04T11:21:03.335Z,25.00
2023-03-04T11:25:09.463Z,23.65
2023-03-04T11:29:18.571Z,20.98
2023-03-04T11:33:28.120Z,23.40
2023-03-04T11:37:39.481Z,22.23
2023-03-04T11:41:50.612Z,28.92
2023-03-04T11:46:21.918Z,21.42
2023-03-04T11:50:38.907Z,16.05
2023-03-04T11:55:06.458Z,26.17
2023-03-04T11:59:32.109Z,15.27
2023-03-04T12:03:56.727Z,15.82
2023-03-04T12:08:33.499Z,29.05
2023-03-04T12:12:55.582Z,24.38
2023-03-04T12:17:35.647Z,21.98
2023-03-04T12:22:03.607Z,19.55
2023-03-04T12:26:18.112Z,19.67
2023-03-04T12:30:38.111Z,17.98
2023-03-04T12:34:58.856Z,17.90
2023-03-04T12:39:08.738Z,25.88
2023-03-04T12:43:36.531Z,29.98
2023-03-04T12:47:51.692Z,20.42
2023-03-04T12:52:04.273Z,19.73
2023-03-04T12:56:10.319Z,22.33
2023-03-04T13:00:36.242Z,20.35
2023-03-04T13:04:54.769Z,23.25
2023-03-04T13:09:06.456Z,17.70
2023-03-04T13:13:43.338Z,28.60
2023-03-04T13:17:49.266Z,25.13
2023-03-04T13:21:55.261Z,30.35
2023-03-04T13:26:21.454Z,25.33
2023-03-04T13:31:05.793Z,21.75
2023-03-04T13:35:42.056Z,21.20
2023-03-04T13:39:45.445Z,21.77
2023-03-04T13:43:50.598Z,24.23
2023-03-04T13:47:55.842Z,27.92
2023-03-04T13:51:59.946Z,20.20
2023-03-04T13:56:20.089Z,25.30
2023-03-04T14:00:23.169Z,19.60
2023-03-04T14:04:33.940Z,29.13
2023-03-04T14:08:36.820Z,26.00
2023-03-04T14:12:45.585Z,21.42
2023-03-04T14:16:51.287Z,26.70
2023-03-04T14:20:59.390Z,25.23
2023-03-04T14:25:05.990Z,19.95
2023-03-04T14:29:24.008Z,32.33
2023-03-04T14:33:29.409Z,26.63
2023-03-04T14:37:44.225Z,21.60
2023-03-04T14:41:50.517Z,22.85
2023-03-04T14:45:56.425Z,24.15
2023-03-04T14:49:59.537Z,24.13
2023-03-04T14:54:04.386Z,20.40
2023-03-04T14:58:09.680Z,20.67
2023-03-04T15:02:31.692Z,25.77
2023-03-04T15:06:36.344Z,24.67
2023-03-04T15:10:41.070Z,19.45
2023-03-04T15:19:02.510Z,19.85
2023-03-04T15:23:10.044Z,18.17
2023-03-04T15:27:17.516Z,19.25
2023-03-04T15:31:22.596Z,18.33
2023-03-04T15:35:29.905Z,15.82
2023-03-04T15:39:33.621Z,13.27
2023-03-04T15:43:39.148Z,21.02
2023-03-04T15:47:43.271Z,12.82
2023-03-04T15:51:46.726Z,13.60
2023-03-04T15:55:49.874Z,13.23
2023-03-04T15:59:55.622Z,13.18
2023-03-04T16:03:58.530Z,16.15
2023-03-04T16:08:01.957Z,16.10
2023-03-04T16:12:05.119Z,21.08
2023-03-04T16:16:13.790Z,17.15
2023-03-04T16:20:19.211Z,13.18
2023-03-04T16:24:22.518Z,19.42
2023-03-04T16:28:25.485Z,15.85
2023-03-04T16:32:32.569Z,15.70
2023-03-04T16:36:37.437Z,21.10
2023-03-04T16:40:40.984Z,17.23
2023-03-04T16:44:44.150Z,13.52
2023-03-04T16:48:49.752Z,13.35
2023-03-04T16:52:52.656Z,18.42
2023-03-04T16:56:55.994Z,11.50
2023-03-04T17:00:59.171Z,17.13
2023-03-04T17:05:04.618Z,18.23
2023-03-04T17:09:08.251Z,15.27
2023-03-04T17:13:11.486Z,12.05
2023-03-04T17:17:16.272Z,13.55
2023-03-04T17:21:24.506Z,14.07
2023-03-04T17:25:27.910Z,18.80
2023-03-04T17:29:31.193Z,22.85
2023-03-04T17:33:34.138Z,15.43
2023-03-04T17:37:38.874Z,14.25
2023-03-04T17:41:42.026Z,18.45
2023-03-04T17:45:45.626Z,13.02
2023-03-04T17:49:48.804Z,13.13
2023-03-04T17:53:53.619Z,17.55
2023-03-04T17:57:58.332Z,14.55
2023-03-04T18:02:01.515Z,16.02
2023-03-04T18:06:04.816Z,16.00
2023-03-04T18:10:10.696Z,12.27
2023-03-04T18:14:14.352Z,17.92
2023-03-04T18:18:17.636Z,19.73
2023-03-04T18:22:20.591Z,18.20
2023-03-04T18:26:27.085Z,24.98
2023-03-04T18:30:29.988Z,20.88
2023-03-04T18:34:33.246Z,19.73
2023-03-04T18:38:36.605Z,19.88
2023-03-04T18:42:45.151Z,18.45
2023-03-04T18:46:51.789Z,18.88
2023-03-04T18:50:58.595Z,18.42
2023-03-04T18:55:01.531Z,21.48
2023-03-04T18:59:08.423Z,20.30
2023-03-04T19:03:14.032Z,15.65
2023-03-04T19:07:17.658Z,19.90
2023-03-04T19:11:20.562Z,26.33
2023-03-04T19:15:25.704Z,21.85
2023-03-04T19:19:28.628Z,18.85
2023-03-04T19:23:31.985Z,24.00
2023-03-04T19:27:34.943Z,20.08
2023-03-04T19:31:41.698Z,21.40
2023-03-04T19:35:48.262Z,17.33
2023-03-04T19:39:52.518Z,24.10
2023-03-04T19:43:55.618Z,24.27
2023-03-04T19:48:00.683Z,19.45
2023-03-04T19:52:03.673Z,17.33
2023-03-04T19:56:07.668Z,22.00
2023-03-04T20:00:11.969Z,25.02
2023-03-04T20:04:18.703Z,17.00
2023-03-04T20:08:21.631Z,21.33
2023-03-04T20:12:25.650Z,23.17
2023-03-04T20:16:29.597Z,30.83
2023-03-04T20:20:34.147Z,18.05
2023-03-04T20:24:37.601Z,27.85
2023-03-04T20:28:40.940Z,16.55
2023-03-04T20:32:44.134Z,18.52
2023-03-04T20:36:48.512Z,32.58
2023-03-04T20:40:51.596Z,24.15
2023-03-04T20:44:56.101Z,20.17
2023-03-04T20:49:01.344Z,21.33
2023-03-04T20:53:06.144Z,16.20
2023-03-04T20:57:10.797Z,16.85
2023-03-04T21:01:14.694Z,19.33
2023-03-04T21:05:17.769Z,14.95
2023-03-04T21:09:25.459Z,24.08
2023-03-04T21:13:30.585Z,19.45
2023-03-04T21:17:34.222Z,27.52
2023-03-04T21:21:37.274Z,17.20
2023-03-04T21:25:42.571Z,21.73
2023-03-04T21:29:45.959Z,18.92
2023-03-04T21:33:49.653Z,25.27
2023-03-04T21:37:52.778Z,23.65
2023-03-04T21:41:58.279Z,26.52
2023-03-04T21:46:01.489Z,20.90
2023-03-04T21:50:05.872Z,20.75
2023-03-04T21:54:10.046Z,21.73
2023-03-04T21:58:14.716Z,25.13
2023-03-04T22:02:20.219Z,19.45
2023-03-04T22:06:41.465Z,34.38
2023-03-04T22:10:47.340Z,29.23
2023-03-04T22:14:52.551Z,21.17
2023-03-04T22:18:55.912Z,19.98
2023-03-04T22:22:59.157Z,20.75
2023-03-04T22:27:02.150Z,16.75
2023-03-04T22:31:15.414Z,30.33
2023-03-04T22:35:18.764Z,22.77
2023-03-04T22:39:23.248Z,22.02
2023-03-04T22:43:26.644Z,22.00
2023-03-04T22:47:32.242Z,18.58
2023-03-04T22:51:35.246Z,19.25
2023-03-04T22:55:38.453Z,22.35
2023-03-04T22:59:41.454Z,23.75
2023-03-04T23:03:47.485Z,23.67
2023-03-04T23:07:52.436Z,26.52
2023-03-04T23:11:55.709Z,22.73
2023-03-04T23:15:58.567Z,17.30
2023-03-04T23:20:03.846Z,19.42
2023-03-04T23:24:08.418Z,16.80
2023-03-04T23:28:12.009Z,18.80
2023-03-04T23:32:15.064Z,19.58
2023-03-04T23:36:20.701Z,21.17
2023-03-04T23:40:23.625Z,22.70
2023-03-04T23:44:26.953Z,16.13
2023-03-04T23:48:30.217Z,23.77
2023-03-04T23:52:34.792Z,26.02
2023-03-04T23:56:37.892Z,21.98
